sensor_id;sensor_type;location;lat;lon;timestamp;temperature;humidity
72320;SHT30;60269;52.502;16.732;2022-07-29T00:02:35;13.34;71.08
72320;SHT30;60269;52.502;16.732;2022-07-29T00:06:14;13.42;70.95
72320;SHT30;60269;52.502;16.732;2022-07-29T00:10:13;13.48;71.31
72320;SHT30;60269;52.502;16.732;2022-07-29T00:14:12;13.36;71.57
72320;SHT30;60269;52.502;16.732;2022-07-29T00:17:57;13.18;72.57
72320;SHT30;60269;52.502;16.732;2022-07-29T00:21:42;13.19;72.87
72320;SHT30;60269;52.502;16.732;2022-07-29T00:25:27;13.19;72.95
72320;SHT30;60269;52.502;16.732;2022-07-29T00:29:19;13.07;73.41
72320;SHT30;60269;52.502;16.732;2022-07-29T00:33:12;13.19;73.21
72320;SHT30;60269;52.502;16.732;2022-07-29T00:37:04;13.18;73.72
72320;SHT30;60269;52.502;16.732;2022-07-29T00:40:49;13.14;74.15
72320;SHT30;60269;52.502;16.732;2022-07-29T00:44:41;13.15;74.51
72320;SHT30;60269;52.502;16.732;2022-07-29T00:48:26;13.11;75.29
72320;SHT30;60269;52.502;16.732;2022-07-29T00:52:18;13.00;76.01
72320;SHT30;60269;52.502;16.732;2022-07-29T00:56:03;13.04;76.85
72320;SHT30;60269;52.502;16.732;2022-07-29T00:59:55;13.05;77.14
72320;SHT30;60269;52.502;16.732;2022-07-29T01:03:40;13.05;77.69
72320;SHT30;60269;52.502;16.732;2022-07-29T01:07:34;13.10;78.29
72320;SHT30;60269;52.502;16.732;2022-07-29T01:11:17;13.07;79.17
72320;SHT30;60269;52.502;16.732;2022-07-29T01:15:09;12.97;79.47
72320;SHT30;60269;52.502;16.732;2022-07-29T01:18:49;12.90;80.60
72320;SHT30;60269;52.502;16.732;2022-07-29T01:30:47;12.72;82.30
72320;SHT30;60269;52.502;16.732;2022-07-29T01:38:35;12.80;83.66
72320;SHT30;60269;52.502;16.732;2022-07-29T01:42:36;12.73;83.97
72320;SHT30;60269;52.502;16.732;2022-07-29T01:46:35;12.77;84.51
72320;SHT30;60269;52.502;16.732;2022-07-29T01:50:28;12.83;85.01
72320;SHT30;60269;52.502;16.732;2022-07-29T01:54:26;12.93;85.07
72320;SHT30;60269;52.502;16.732;2022-07-29T01:58:14;12.90;84.84
72320;SHT30;60269;52.502;16.732;2022-07-29T02:02:07;12.86;85.72
72320;SHT30;60269;52.502;16.732;2022-07-29T02:05:55;12.81;86.10
72320;SHT30;60269;52.502;16.732;2022-07-29T02:09:49;12.76;86.45
72320;SHT30;60269;52.502;16.732;2022-07-29T02:13:28;12.77;86.89
72320;SHT30;60269;52.502;16.732;2022-07-29T02:17:53;12.74;87.18
72320;SHT30;60269;52.502;16.732;2022-07-29T02:21:33;12.67;87.62
72320;SHT30;60269;52.502;16.732;2022-07-29T02:25:32;12.73;88.07
72320;SHT30;60269;52.502;16.732;2022-07-29T02:29:32;12.77;88.14
72320;SHT30;60269;52.502;16.732;2022-07-29T02:33:13;12.77;88.15
72320;SHT30;60269;52.502;16.732;2022-07-29T02:37:10;12.74;88.68
72320;SHT30;60269;52.502;16.732;2022-07-29T02:40:50;12.70;89.03
72320;SHT30;60269;52.502;16.732;2022-07-29T02:44:43;12.59;89.17
72320;SHT30;60269;52.502;16.732;2022-07-29T02:48:27;12.59;89.54
72320;SHT30;60269;52.502;16.732;2022-07-29T02:56:34;12.42;90.56
72320;SHT30;60269;52.502;16.732;2022-07-29T03:00:31;12.36;90.95
72320;SHT30;60269;52.502;16.732;2022-07-29T03:04:20;12.32;91.10
72320;SHT30;60269;52.502;16.732;2022-07-29T03:08:10;12.36;91.32
72320;SHT30;60269;52.502;16.732;2022-07-29T03:11:56;12.29;91.50
72320;SHT30;60269;52.502;16.732;2022-07-29T03:15:43;12.33;91.35
72320;SHT30;60269;52.502;16.732;2022-07-29T03:19:29;12.37;91.58
72320;SHT30;60269;52.502;16.732;2022-07-29T03:23:18;12.43;91.50
72320;SHT30;60269;52.502;16.732;2022-07-29T03:27:10;12.39;91.57
72320;SHT30;60269;52.502;16.732;2022-07-29T03:31:02;12.39;91.64
72320;SHT30;60269;52.502;16.732;2022-07-29T03:34:47;12.42;91.80
72320;SHT30;60269;52.502;16.732;2022-07-29T03:38:39;12.45;91.51
72320;SHT30;60269;52.502;16.732;2022-07-29T03:42:30;12.53;91.49
72320;SHT30;60269;52.502;16.732;2022-07-29T03:46:23;12.66;91.12
72320;SHT30;60269;52.502;16.732;2022-07-29T03:50:08;12.66;90.90
72320;SHT30;60269;52.502;16.732;2022-07-29T03:54:08;12.76;90.61
72320;SHT30;60269;52.502;16.732;2022-07-29T03:57:50;12.81;90.39
72320;SHT30;60269;52.502;16.732;2022-07-29T04:01:43;12.79;90.41
72320;SHT30;60269;52.502;16.732;2022-07-29T04:05:28;12.81;90.69
72320;SHT30;60269;52.502;16.732;2022-07-29T04:09:20;12.83;90.50
72320;SHT30;60269;52.502;16.732;2022-07-29T04:13:05;12.95;90.30
72320;SHT30;60269;52.502;16.732;2022-07-29T04:17:05;13.05;89.72
72320;SHT30;60269;52.502;16.732;2022-07-29T04:21:04;13.15;89.50
72320;SHT30;60269;52.502;16.732;2022-07-29T04:24:50;13.18;89.06
72320;SHT30;60269;52.502;16.732;2022-07-29T04:28:41;13.41;88.33
72320;SHT30;60269;52.502;16.732;2022-07-29T04:32:27;13.65;87.32
72320;SHT30;60269;52.502;16.732;2022-07-29T04:36:19;13.82;86.53
72320;SHT30;60269;52.502;16.732;2022-07-29T04:40:07;14.01;85.65
72320;SHT30;60269;52.502;16.732;2022-07-29T04:43:59;14.28;84.63
72320;SHT30;60269;52.502;16.732;2022-07-29T04:47:49;14.42;84.01
72320;SHT30;60269;52.502;16.732;2022-07-29T04:51:41;14.64;83.02
72320;SHT30;60269;52.502;16.732;2022-07-29T04:55:19;14.80;82.39
72320;SHT30;60269;52.502;16.732;2022-07-29T04:59:11;14.98;81.41
72320;SHT30;60269;52.502;16.732;2022-07-29T05:02:50;15.30;80.22
72320;SHT30;60269;52.502;16.732;2022-07-29T05:06:42;15.55;79.03
72320;SHT30;60269;52.502;16.732;2022-07-29T05:10:20;15.94;77.34
72320;SHT30;60269;52.502;16.732;2022-07-29T05:14:12;16.25;75.79
72320;SHT30;60269;52.502;16.732;2022-07-29T05:17:57;16.67;73.78
72320;SHT30;60269;52.502;16.732;2022-07-29T05:21:56;17.66;70.46
72320;SHT30;60269;52.502;16.732;2022-07-29T05:25:34;18.32;67.58
72320;SHT30;60269;52.502;16.732;2022-07-29T05:29:33;18.85;64.88
72320;SHT30;60269;52.502;16.732;2022-07-29T05:33:32;19.30;63.25
72320;SHT30;60269;52.502;16.732;2022-07-29T05:37:10;19.44;62.49
72320;SHT30;60269;52.502;16.732;2022-07-29T05:41:09;19.97;61.07
72320;SHT30;60269;52.502;16.732;2022-07-29T05:44:47;20.30;59.69
72320;SHT30;60269;52.502;16.732;2022-07-29T05:48:39;20.65;57.99
72320;SHT30;60269;52.502;16.732;2022-07-29T05:52:17;20.89;57.45
72320;SHT30;60269;52.502;16.732;2022-07-29T05:56:16;21.25;55.79
72320;SHT30;60269;52.502;16.732;2022-07-29T06:00:15;21.63;54.13
72320;SHT30;60269;52.502;16.732;2022-07-29T06:03:53;21.61;52.96
72320;SHT30;60269;52.502;16.732;2022-07-29T06:07:45;21.58;52.81
72320;SHT30;60269;52.502;16.732;2022-07-29T06:11:23;21.76;52.63
72320;SHT30;60269;52.502;16.732;2022-07-29T06:15:22;22.34;51.50
72320;SHT30;60269;52.502;16.732;2022-07-29T06:19:01;22.87;49.83
72320;SHT30;60269;52.502;16.732;2022-07-29T06:22:59;23.30;48.85
72320;SHT30;60269;52.502;16.732;2022-07-29T06:26:41;23.54;46.95
72320;SHT30;60269;52.502;16.732;2022-07-29T06:30:33;23.66;46.34
72320;SHT30;60269;52.502;16.732;2022-07-29T06:34:18;23.66;46.08
72320;SHT30;60269;52.502;16.732;2022-07-29T06:38:10;24.09;45.50
72320;SHT30;60269;52.502;16.732;2022-07-29T06:42:09;24.51;44.33
72320;SHT30;60269;52.502;16.732;2022-07-29T06:46:02;24.88;42.73
72320;SHT30;60269;52.502;16.732;2022-07-29T06:49:48;24.94;42.70
72320;SHT30;60269;52.502;16.732;2022-07-29T06:53:40;25.50;41.58
72320;SHT30;60269;52.502;16.732;2022-07-29T06:57:34;25.57;41.69
72320;SHT30;60269;52.502;16.732;2022-07-29T07:01:41;25.94;41.04
72320;SHT30;60269;52.502;16.732;2022-07-29T07:05:40;25.57;41.75
72320;SHT30;60269;52.502;16.732;2022-07-29T07:09:18;24.84;42.28
72320;SHT30;60269;52.502;16.732;2022-07-29T07:13:24;24.84;42.29
72320;SHT30;60269;52.502;16.732;2022-07-29T07:17:26;24.91;42.51
72320;SHT30;60269;52.502;16.732;2022-07-29T07:21:04;24.91;42.54
72320;SHT30;60269;52.502;16.732;2022-07-29T07:25:03;24.58;42.42
72320;SHT30;60269;52.502;16.732;2022-07-29T07:28:42;24.85;42.93
72320;SHT30;60269;52.502;16.732;2022-07-29T07:32:40;24.76;42.09
72320;SHT30;60269;52.502;16.732;2022-07-29T07:36:19;24.82;42.08
72320;SHT30;60269;52.502;16.732;2022-07-29T07:40:12;24.84;41.87
72320;SHT30;60269;52.502;16.732;2022-07-29T07:43:57;24.89;40.96
72320;SHT30;60269;52.502;16.732;2022-07-29T07:47:55;24.54;41.76
72320;SHT30;60269;52.502;16.732;2022-07-29T07:51:33;24.47;41.87
72320;SHT30;60269;52.502;16.732;2022-07-29T07:55:28;24.36;41.92
72320;SHT30;60269;52.502;16.732;2022-07-29T07:59:33;24.41;42.02
72320;SHT30;60269;52.502;16.732;2022-07-29T08:03:32;24.38;41.95
72320;SHT30;60269;52.502;16.732;2022-07-29T08:07:12;24.21;41.54
72320;SHT30;60269;52.502;16.732;2022-07-29T08:11:10;24.47;41.40
72320;SHT30;60269;52.502;16.732;2022-07-29T08:14:49;24.46;40.98
72320;SHT30;60269;52.502;16.732;2022-07-29T08:18:48;24.64;41.11
72320;SHT30;60269;52.502;16.732;2022-07-29T08:22:48;24.55;40.51
72320;SHT30;60269;52.502;16.732;2022-07-29T08:26:26;24.76;40.07
72320;SHT30;60269;52.502;16.732;2022-07-29T08:30:18;24.88;39.56
72320;SHT30;60269;52.502;16.732;2022-07-29T08:33:56;25.06;39.61
72320;SHT30;60269;52.502;16.732;2022-07-29T08:37:55;25.29;39.07
72320;SHT30;60269;52.502;16.732;2022-07-29T08:41:35;25.29;39.19
72320;SHT30;60269;52.502;16.732;2022-07-29T08:45:43;25.46;39.14
72320;SHT30;60269;52.502;16.732;2022-07-29T08:49:23;25.43;39.19
72320;SHT30;60269;52.502;16.732;2022-07-29T08:53:17;25.44;38.37
72320;SHT30;60269;52.502;16.732;2022-07-29T08:57:03;25.32;38.67
72320;SHT30;60269;52.502;16.732;2022-07-29T09:00:55;25.44;38.34
72320;SHT30;60269;52.502;16.732;2022-07-29T09:04:43;25.66;38.45
72320;SHT30;60269;52.502;16.732;2022-07-29T09:08:28;25.85;38.09
72320;SHT30;60269;52.502;16.732;2022-07-29T09:12:15;25.97;38.06
72320;SHT30;60269;52.502;16.732;2022-07-29T09:16:12;25.94;38.16
72320;SHT30;60269;52.502;16.732;2022-07-29T09:20:19;26.26;37.70
72320;SHT30;60269;52.502;16.732;2022-07-29T09:28:19;25.94;36.92
72320;SHT30;60269;52.502;16.732;2022-07-29T09:32:11;25.91;37.18
72320;SHT30;60269;52.502;16.732;2022-07-29T09:36:03;26.08;37.73
72320;SHT30;60269;52.502;16.732;2022-07-29T09:39:56;26.04;37.14
72320;SHT30;60269;52.502;16.732;2022-07-29T09:43:56;26.15;37.15
72320;SHT30;60269;52.502;16.732;2022-07-29T09:47:50;26.02;37.02
72320;SHT30;60269;52.502;16.732;2022-07-29T09:51:36;26.11;36.54
72320;SHT30;60269;52.502;16.732;2022-07-29T09:55:28;26.73;35.31
72320;SHT30;60269;52.502;16.732;2022-07-29T09:59:08;27.79;34.01
72320;SHT30;60269;52.502;16.732;2022-07-29T10:03:00;28.40;32.57
72320;SHT30;60269;52.502;16.732;2022-07-29T10:06:59;28.67;31.91
72320;SHT30;60269;52.502;16.732;2022-07-29T10:11:15;29.23;30.92
72320;SHT30;60269;52.502;16.732;2022-07-29T10:14:54;29.47;30.09
72320;SHT30;60269;52.502;16.732;2022-07-29T10:18:53;29.77;30.40
72320;SHT30;60269;52.502;16.732;2022-07-29T10:22:31;30.09;29.24
72320;SHT30;60269;52.502;16.732;2022-07-29T10:26:37;30.19;29.17
72320;SHT30;60269;52.502;16.732;2022-07-29T10:30:20;31.06;28.21
72320;SHT30;60269;52.502;16.732;2022-07-29T10:42:41;31.03;26.62
72320;SHT30;60269;52.502;16.732;2022-07-29T10:46:22;30.21;28.23
72320;SHT30;60269;52.502;16.732;2022-07-29T10:50:22;29.77;29.28
72320;SHT30;60269;52.502;16.732;2022-07-29T10:54:00;29.77;30.54
72320;SHT30;60269;52.502;16.732;2022-07-29T11:01:50;29.27;31.53
72320;SHT30;60269;52.502;16.732;2022-07-29T11:06:09;30.37;29.42
72320;SHT30;60269;52.502;16.732;2022-07-29T11:14:04;33.06;26.44
72320;SHT30;60269;52.502;16.732;2022-07-29T11:21:50;32.81;26.03
72320;SHT30;60269;52.502;16.732;2022-07-29T11:29:59;33.76;24.78
72320;SHT30;60269;52.502;16.732;2022-07-29T11:46:46;33.34;25.22
72320;SHT30;60269;52.502;16.732;2022-07-29T11:50:36;32.85;25.57
72320;SHT30;60269;52.502;16.732;2022-07-29T11:54:36;32.67;25.64
72320;SHT30;60269;52.502;16.732;2022-07-29T11:58:36;33.12;25.21
72320;SHT30;60269;52.502;16.732;2022-07-29T12:02:21;33.80;24.65
72320;SHT30;60269;52.502;16.732;2022-07-29T12:06:15;33.76;24.84
72320;SHT30;60269;52.502;16.732;2022-07-29T12:10:01;34.12;24.47
72320;SHT30;60269;52.502;16.732;2022-07-29T12:13:56;35.08;22.95
72320;SHT30;60269;52.502;16.732;2022-07-29T12:17:52;35.34;22.98
72320;SHT30;60269;52.502;16.732;2022-07-29T12:21:45;35.92;22.21
72320;SHT30;60269;52.502;16.732;2022-07-29T12:25:41;35.35;22.63
72320;SHT30;60269;52.502;16.732;2022-07-29T12:29:26;34.41;23.94
72320;SHT30;60269;52.502;16.732;2022-07-29T12:37:04;35.02;23.06
72320;SHT30;60269;52.502;16.732;2022-07-29T12:40:55;35.15;22.53
72320;SHT30;60269;52.502;16.732;2022-07-29T12:44:49;35.51;21.78
72320;SHT30;60269;52.502;16.732;2022-07-29T12:48:42;36.54;21.55
72320;SHT30;60269;52.502;16.732;2022-07-29T12:52:30;37.38;21.01
72320;SHT30;60269;52.502;16.732;2022-07-29T12:56:22;36.08;21.86
72320;SHT30;60269;52.502;16.732;2022-07-29T13:00:24;34.97;22.64
72320;SHT30;60269;52.502;16.732;2022-07-29T13:04:26;33.93;23.90
72320;SHT30;60269;52.502;16.732;2022-07-29T13:08:10;33.63;24.05
72320;SHT30;60269;52.502;16.732;2022-07-29T13:12:12;33.50;23.91
72320;SHT30;60269;52.502;16.732;2022-07-29T13:16:07;32.95;25.02
72320;SHT30;60269;52.502;16.732;2022-07-29T13:20:08;33.82;24.06
72320;SHT30;60269;52.502;16.732;2022-07-29T13:23:56;34.99;22.78
72320;SHT30;60269;52.502;16.732;2022-07-29T13:27:48;35.85;21.72
72320;SHT30;60269;52.502;16.732;2022-07-29T13:31:27;35.92;21.58
72320;SHT30;60269;52.502;16.732;2022-07-29T13:35:19;36.15;21.09
72320;SHT30;60269;52.502;16.732;2022-07-29T13:39:04;36.60;20.91
72320;SHT30;60269;52.502;16.732;2022-07-29T13:42:56;37.86;20.37
72320;SHT30;60269;52.502;16.732;2022-07-29T13:46:35;36.78;20.59
72320;SHT30;60269;52.502;16.732;2022-07-29T13:50:26;36.09;21.08
72320;SHT30;60269;52.502;16.732;2022-07-29T13:54:11;34.05;23.64
72320;SHT30;60269;52.502;16.732;2022-07-29T13:58:03;35.27;21.88
72320;SHT30;60269;52.502;16.732;2022-07-29T14:01:42;36.30;21.04
72320;SHT30;60269;52.502;16.732;2022-07-29T14:05:41;37.38;20.21
72320;SHT30;60269;52.502;16.732;2022-07-29T14:09:20;37.82;19.96
72320;SHT30;60269;52.502;16.732;2022-07-29T14:13:25;36.56;20.58
72320;SHT30;60269;52.502;16.732;2022-07-29T14:17:24;36.02;20.63
72320;SHT30;60269;52.502;16.732;2022-07-29T14:21:03;34.44;21.79
72320;SHT30;60269;52.502;16.732;2022-07-29T14:25:01;32.89;24.58
72320;SHT30;60269;52.502;16.732;2022-07-29T14:29:00;32.98;24.89
72320;SHT30;60269;52.502;16.732;2022-07-29T14:32:39;34.39;23.03
72320;SHT30;60269;52.502;16.732;2022-07-29T14:36:37;35.65;21.79
72320;SHT30;60269;52.502;16.732;2022-07-29T14:40:16;36.44;20.83
72320;SHT30;60269;52.502;16.732;2022-07-29T14:44:08;36.44;20.78
72320;SHT30;60269;52.502;16.732;2022-07-29T14:47:46;35.78;21.27
72320;SHT30;60269;52.502;16.732;2022-07-29T14:51:45;34.96;21.95
72320;SHT30;60269;52.502;16.732;2022-07-29T14:55:24;34.99;22.33
72320;SHT30;60269;52.502;16.732;2022-07-29T14:59:16;34.75;22.39
72320;SHT30;60269;52.502;16.732;2022-07-29T15:02:55;34.15;22.94
72320;SHT30;60269;52.502;16.732;2022-07-29T15:06:55;35.15;22.02
72320;SHT30;60269;52.502;16.732;2022-07-29T15:10:34;36.16;20.87
72320;SHT30;60269;52.502;16.732;2022-07-29T15:14:33;35.89;21.09
72320;SHT30;60269;52.502;16.732;2022-07-29T15:18:12;34.97;22.02
72320;SHT30;60269;52.502;16.732;2022-07-29T15:22:09;34.83;22.18
72320;SHT30;60269;52.502;16.732;2022-07-29T15:25:48;35.06;22.01
72320;SHT30;60269;52.502;16.732;2022-07-29T15:29:43;35.38;21.72
72320;SHT30;60269;52.502;16.732;2022-07-29T15:33:22;34.08;22.48
72320;SHT30;60269;52.502;16.732;2022-07-29T15:37:20;34.48;22.20
72320;SHT30;60269;52.502;16.732;2022-07-29T15:41:33;34.60;22.28
72320;SHT30;60269;52.502;16.732;2022-07-29T15:45:12;33.96;22.77
72320;SHT30;60269;52.502;16.732;2022-07-29T15:49:05;32.91;23.98
72320;SHT30;60269;52.502;16.732;2022-07-29T15:52:44;31.83;25.25
72320;SHT30;60269;52.502;16.732;2022-07-29T15:56:42;32.24;24.39
72320;SHT30;60269;52.502;16.732;2022-07-29T16:00:20;32.86;23.75
72320;SHT30;60269;52.502;16.732;2022-07-29T16:04:12;33.47;22.54
72320;SHT30;60269;52.502;16.732;2022-07-29T16:07:57;34.09;22.47
72320;SHT30;60269;52.502;16.732;2022-07-29T16:11:49;34.38;22.25
72320;SHT30;60269;52.502;16.732;2022-07-29T16:15:31;33.71;22.96
72320;SHT30;60269;52.502;16.732;2022-07-29T16:19:39;32.84;23.97
72320;SHT30;60269;52.502;16.732;2022-07-29T16:23:17;32.67;24.20
72320;SHT30;60269;52.502;16.732;2022-07-29T16:27:09;32.10;24.54
72320;SHT30;60269;52.502;16.732;2022-07-29T16:30:55;32.03;24.91
72320;SHT30;60269;52.502;16.732;2022-07-29T16:34:46;32.64;24.49
72320;SHT30;60269;52.502;16.732;2022-07-29T16:38:25;32.19;25.04
72320;SHT30;60269;52.502;16.732;2022-07-29T16:42:24;32.02;25.37
72320;SHT30;60269;52.502;16.732;2022-07-29T16:46:23;32.24;25.19
72320;SHT30;60269;52.502;16.732;2022-07-29T16:50:18;31.94;25.34
72320;SHT30;60269;52.502;16.732;2022-07-29T16:53:56;31.73;25.54
72320;SHT30;60269;52.502;16.732;2022-07-29T16:57:49;32.03;25.45
72320;SHT30;60269;52.502;16.732;2022-07-29T17:01:29;31.41;25.84
72320;SHT30;60269;52.502;16.732;2022-07-29T17:05:21;31.11;26.30
72320;SHT30;60269;52.502;16.732;2022-07-29T17:09:26;30.62;27.05
72320;SHT30;60269;52.502;16.732;2022-07-29T17:13:18;30.01;27.72
72320;SHT30;60269;52.502;16.732;2022-07-29T17:16:58;30.00;28.16
72320;SHT30;60269;52.502;16.732;2022-07-29T17:20:57;29.85;28.28
72320;SHT30;60269;52.502;16.732;2022-07-29T17:24:42;29.68;28.76
72320;SHT30;60269;52.502;16.732;2022-07-29T17:28:34;29.31;29.32
72320;SHT30;60269;52.502;16.732;2022-07-29T17:32:13;28.95;29.78
72320;SHT30;60269;52.502;16.732;2022-07-29T17:36:04;28.24;30.91
72320;SHT30;60269;52.502;16.732;2022-07-29T17:40:09;27.21;32.80
72320;SHT30;60269;52.502;16.732;2022-07-29T17:43:53;27.46;32.45
72320;SHT30;60269;52.502;16.732;2022-07-29T17:47:38;27.58;32.11
72320;SHT30;60269;52.502;16.732;2022-07-29T17:51:31;27.44;32.30
72320;SHT30;60269;52.502;16.732;2022-07-29T17:55:16;27.28;32.57
72320;SHT30;60269;52.502;16.732;2022-07-29T17:59:07;27.06;32.83
72320;SHT30;60269;52.502;16.732;2022-07-29T18:02:47;26.80;33.26
72320;SHT30;60269;52.502;16.732;2022-07-29T18:06:45;26.43;33.93
72320;SHT30;60269;52.502;16.732;2022-07-29T18:10:24;26.17;34.42
72320;SHT30;60269;52.502;16.732;2022-07-29T18:14:16;25.75;35.22
72320;SHT30;60269;52.502;16.732;2022-07-29T18:17:55;25.22;36.20
72320;SHT30;60269;52.502;16.732;2022-07-29T18:21:54;24.61;37.48
72320;SHT30;60269;52.502;16.732;2022-07-29T18:25:36;24.27;38.21
72320;SHT30;60269;52.502;16.732;2022-07-29T18:29:35;23.78;39.35
72320;SHT30;60269;52.502;16.732;2022-07-29T18:33:34;23.37;40.48
72320;SHT30;60269;52.502;16.732;2022-07-29T18:37:13;23.03;41.45
72320;SHT30;60269;52.502;16.732;2022-07-29T18:41:24;22.76;42.27
72320;SHT30;60269;52.502;16.732;2022-07-29T18:45:03;22.56;42.95
72320;SHT30;60269;52.502;16.732;2022-07-29T18:49:03;22.26;43.49
72320;SHT30;60269;52.502;16.732;2022-07-29T18:52:42;22.05;44.25
72320;SHT30;60269;52.502;16.732;2022-07-29T18:56:35;21.87;44.89
72320;SHT30;60269;52.502;16.732;2022-07-29T19:00:20;21.54;45.74
72320;SHT30;60269;52.502;16.732;2022-07-29T19:04:18;21.39;46.18
72320;SHT30;60269;52.502;16.732;2022-07-29T19:07:57;21.22;46.66
72320;SHT30;60269;52.502;16.732;2022-07-29T19:11:49;21.00;47.43
72320;SHT30;60269;52.502;16.732;2022-07-29T19:15:34;20.87;47.77
72320;SHT30;60269;52.502;16.732;2022-07-29T19:19:25;20.68;48.15
72320;SHT30;60269;52.502;16.732;2022-07-29T19:23:11;20.52;48.53
72320;SHT30;60269;52.502;16.732;2022-07-29T19:27:02;20.29;49.63
72320;SHT30;60269;52.502;16.732;2022-07-29T19:30:48;20.08;50.05
72320;SHT30;60269;52.502;16.732;2022-07-29T19:34:39;20.03;50.38
72320;SHT30;60269;52.502;16.732;2022-07-29T19:38:27;19.94;50.89
72320;SHT30;60269;52.502;16.732;2022-07-29T19:42:18;19.93;50.86
72320;SHT30;60269;52.502;16.732;2022-07-29T19:45:57;19.86;51.31
72320;SHT30;60269;52.502;16.732;2022-07-29T19:49:48;19.75;51.70
72320;SHT30;60269;52.502;16.732;2022-07-29T19:53:34;19.65;51.97
72320;SHT30;60269;52.502;16.732;2022-07-29T19:57:18;19.52;52.55
72320;SHT30;60269;52.502;16.732;2022-07-29T20:01:15;19.41;52.68
72320;SHT30;60269;52.502;16.732;2022-07-29T20:05:00;19.35;53.00
72320;SHT30;60269;52.502;16.732;2022-07-29T20:08:46;19.24;53.41
72320;SHT30;60269;52.502;16.732;2022-07-29T20:12:37;19.08;53.99
72320;SHT30;60269;52.502;16.732;2022-07-29T20:16:26;19.03;54.17
72320;SHT30;60269;52.502;16.732;2022-07-29T20:20:11;18.96;54.66
72320;SHT30;60269;52.502;16.732;2022-07-29T20:23:56;18.96;54.63
72320;SHT30;60269;52.502;16.732;2022-07-29T20:27:48;18.79;55.14
72320;SHT30;60269;52.502;16.732;2022-07-29T20:31:29;18.76;55.40
72320;SHT30;60269;52.502;16.732;2022-07-29T20:35:20;18.75;55.69
72320;SHT30;60269;52.502;16.732;2022-07-29T20:38:59;18.72;55.47
72320;SHT30;60269;52.502;16.732;2022-07-29T20:42:51;18.66;55.64
72320;SHT30;60269;52.502;16.732;2022-07-29T20:46:36;18.69;55.77
72320;SHT30;60269;52.502;16.732;2022-07-29T20:50:27;18.48;56.39
72320;SHT30;60269;52.502;16.732;2022-07-29T20:54:06;18.44;56.75
72320;SHT30;60269;52.502;16.732;2022-07-29T20:57:57;18.28;57.36
72320;SHT30;60269;52.502;16.732;2022-07-29T21:01:36;18.18;57.77
72320;SHT30;60269;52.502;16.732;2022-07-29T21:05:27;18.11;57.96
72320;SHT30;60269;52.502;16.732;2022-07-29T21:09:13;18.10;57.99
72320;SHT30;60269;52.502;16.732;2022-07-29T21:13:04;18.01;58.16
72320;SHT30;60269;52.502;16.732;2022-07-29T21:16:50;17.96;58.55
72320;SHT30;60269;52.502;16.732;2022-07-29T21:20:35;17.71;59.20
72320;SHT30;60269;52.502;16.732;2022-07-29T21:24:21;17.60;59.59
72320;SHT30;60269;52.502;16.732;2022-07-29T21:28:12;17.66;59.26
72320;SHT30;60269;52.502;16.732;2022-07-29T21:32:16;17.70;59.20
72320;SHT30;60269;52.502;16.732;2022-07-29T21:36:10;17.66;59.26
72320;SHT30;60269;52.502;16.732;2022-07-29T21:40:16;17.54;59.41
72320;SHT30;60269;52.502;16.732;2022-07-29T21:44:00;17.50;59.71
72320;SHT30;60269;52.502;16.732;2022-07-29T21:47:46;17.39;60.15
72320;SHT30;60269;52.502;16.732;2022-07-29T21:51:37;17.23;60.84
72320;SHT30;60269;52.502;16.732;2022-07-29T21:55:16;17.11;61.39
72320;SHT30;60269;52.502;16.732;2022-07-29T21:59:15;17.14;61.27
72320;SHT30;60269;52.502;16.732;2022-07-29T22:02:54;17.14;61.33
72320;SHT30;60269;52.502;16.732;2022-07-29T22:06:52;17.05;61.87
72320;SHT30;60269;52.502;16.732;2022-07-29T22:10:32;16.95;61.92
72320;SHT30;60269;52.502;16.732;2022-07-29T22:14:31;17.00;62.14
72320;SHT30;60269;52.502;16.732;2022-07-29T22:18:10;16.98;62.22
72320;SHT30;60269;52.502;16.732;2022-07-29T22:22:08;17.01;62.14
72320;SHT30;60269;52.502;16.732;2022-07-29T22:25:54;16.96;62.18
72320;SHT30;60269;52.502;16.732;2022-07-29T22:29:40;16.94;62.21
72320;SHT30;60269;52.502;16.732;2022-07-29T22:33:26;16.94;62.28
72320;SHT30;60269;52.502;16.732;2022-07-29T22:37:17;16.94;62.03
72320;SHT30;60269;52.502;16.732;2022-07-29T22:40:56;16.81;62.49
72320;SHT30;60269;52.502;16.732;2022-07-29T22:44:52;16.80;62.75
72320;SHT30;60269;52.502;16.732;2022-07-29T22:48:31;16.68;63.05
72320;SHT30;60269;52.502;16.732;2022-07-29T22:52:22;16.65;63.14
72320;SHT30;60269;52.502;16.732;2022-07-29T22:56:08;16.67;63.12
72320;SHT30;60269;52.502;16.732;2022-07-29T23:00:07;16.53;63.75
72320;SHT30;60269;52.502;16.732;2022-07-29T23:03:48;16.32;64.35
72320;SHT30;60269;52.502;16.732;2022-07-29T23:07:47;16.44;64.04
72320;SHT30;60269;52.502;16.732;2022-07-29T23:11:26;16.50;63.63
72320;SHT30;60269;52.502;16.732;2022-07-29T23:15:19;16.43;64.02
72320;SHT30;60269;52.502;16.732;2022-07-29T23:19:04;16.42;63.95
72320;SHT30;60269;52.502;16.732;2022-07-29T23:22:55;16.44;63.81
72320;SHT30;60269;52.502;16.732;2022-07-29T23:26:34;16.40;63.78
72320;SHT30;60269;52.502;16.732;2022-07-29T23:30:28;16.30;64.37
72320;SHT30;60269;52.502;16.732;2022-07-29T23:34:13;16.23;64.43
72320;SHT30;60269;52.502;16.732;2022-07-29T23:38:04;16.17;64.79
72320;SHT30;60269;52.502;16.732;2022-07-29T23:41:50;16.15;64.95
72320;SHT30;60269;52.502;16.732;2022-07-29T23:45:42;16.12;64.86
72320;SHT30;60269;52.502;16.732;2022-07-29T23:49:25;16.08;65.05
72320;SHT30;60269;52.502;16.732;2022-07-29T23:53:16;15.94;65.47
72320;SHT30;60269;52.502;16.732;2022-07-29T23:57:02;15.82;65.95
